Time;durP1;ratioP1;P1;durP2;ratioP2;P2;SDS_P1;SDS_P2;PMS_P1;PMS_P2;Temp;Humidity;BMP_temperature;BMP_pressure;BME280_temperature;BME280_humidity;BME280_pressure;Samples;Min_cycle;Max_cycle;Signal;HPM_P1;HPM_P2
2022/03/25 00:01:45;;;;;;;287.00;31.85;;;;;;;;;;5057665;28;20557;-47
2022/03/25 00:04:13;;;;;;;383.23;34.13;;;1.60;99.90;;;;;;5090800;28;20051;-46
2022/03/25 00:06:41;;;;;;;462.65;35.70;;;1.70;99.90;;;;;;5092354;28;20063;-48
2022/03/25 00:09:07;;;;;;;483.45;39.97;;;;;;;;;;5092002;28;21935;-45
2022/03/25 00:11:33;;;;;;;530.53;39.08;;;;;;;;;;5093416;28;20039;-48
2022/03/25 00:13:59;;;;;;;457.77;36.85;;;;;;;;;;5092292;28;20042;-47
2022/03/25 00:16:25;;;;;;;363.88;34.63;;;;;;;;;;5092223;28;20077;-44
2022/03/25 00:18:51;;;;;;;305.10;31.50;;;;;;;;;;5091649;28;20071;-48
2022/03/25 00:21:20;;;;;;;313.63;33.83;;;1.50;99.90;;;;;;5093971;28;20070;-44
2022/03/25 00:23:46;;;;;;;344.48;33.38;;;;;;;;;;5090627;28;20075;-45
2022/03/25 00:26:12;;;;;;;263.83;31.85;;;;;;;;;;5092311;28;20035;-45
2022/03/25 00:28:40;;;;;;;373.40;33.60;;;1.30;99.90;;;;;;5093107;28;20150;-47
2022/03/25 00:31:07;;;;;;;487.35;37.78;;;;;;;;;;5075266;28;20043;-46
2022/03/25 00:33:35;;;;;;;373.98;33.83;;;1.00;99.90;;;;;;5092919;28;20043;-47
2022/03/25 00:36:02;;;;;;;420.85;34.47;;;;;;;;;;5093355;28;20127;-44
2022/03/25 00:38:28;;;;;;;474.60;35.97;;;;;;;;;;5092752;28;20088;-47
2022/03/25 00:40:54;;;;;;;438.58;34.63;;;;;;;;;;5092553;28;20036;-48
2022/03/25 00:43:21;;;;;;;358.60;32.78;;;;;;;;;;5093088;28;20120;-49
2022/03/25 00:45:47;;;;;;;411.60;35.05;;;;;;;;;;5092276;28;20126;-44
2022/03/25 00:48:14;;;;;;;396.98;34.38;;;1.00;99.90;;;;;;5090455;28;20039;-45
2022/03/25 00:50:40;;;;;;;266.55;32.22;;;;;;;;;;5092003;28;20495;-44
2022/03/25 00:53:06;;;;;;;278.45;31.33;;;;;;;;;;5091469;28;20062;-44
2022/03/25 00:55:33;;;;;;;419.92;37.80;;;;;;;;;;5091974;28;20457;-48
2022/03/25 00:58:03;;;;;;;279.98;33.28;;;0.80;99.90;;;;;;5091149;28;20388;-44
2022/03/25 01:00:29;;;;;;;329.40;34.15;;;;;;;;;;5091833;28;20081;-47
2022/03/25 01:02:55;;;;;;;291.40;33.53;;;;;;;;;;5090658;28;20039;-46
2022/03/25 01:05:23;;;;;;;331.63;35.67;;;0.90;99.90;;;;;;5091156;28;20552;-45
2022/03/25 01:07:49;;;;;;;234.88;32.13;;;;;;;;;;5090569;28;20051;-44
2022/03/25 01:10:15;;;;;;;352.17;36.75;;;;;;;;;;5091607;28;20050;-43
2022/03/25 01:12:41;;;;;;;288.30;32.78;;;;;;;;;;5092727;28;20134;-47
2022/03/25 01:15:08;;;;;;;120.93;28.77;;;0.50;99.90;;;;;;5090666;28;20096;-46
2022/03/25 01:17:34;;;;;;;477.00;38.35;;;;;;;;;;5090927;28;20067;-48
2022/03/25 01:20:00;;;;;;;417.23;38.55;;;;;;;;;;5072623;28;20108;-46
2022/03/25 01:22:26;;;;;;;294.67;34.08;;;;;;;;;;5090551;28;20031;-45
2022/03/25 01:24:52;;;;;;;167.70;30.98;;;;;;;;;;5090102;28;20088;-44
2022/03/25 01:27:18;;;;;;;110.85;29.90;;;;;;;;;;5090054;28;20096;-43
2022/03/25 01:29:45;;;;;;;115.63;28.60;;;;;;;;;;5091652;28;20047;-49
2022/03/25 01:32:12;;;;;;;127.50;30.13;;;;;;;;;;5090663;28;20047;-44
2022/03/25 01:34:38;;;;;;;133.85;30.80;;;;;;;;;;5090527;28;20050;-45
2022/03/25 01:37:05;;;;;;;71.18;28.20;;;;;;;;;;5095614;28;20055;-47
2022/03/25 01:39:33;;;;;;;108.35;28.63;;;0.30;99.90;;;;;;5095837;28;20657;-45
2022/03/25 01:41:59;;;;;;;152.43;31.10;;;;;;;;;;5095553;28;20430;-46
2022/03/25 01:44:29;;;;;;;153.88;30.85;;;0.40;99.90;;;;;;5096269;28;20044;-46
2022/03/25 01:46:59;;;;;;;255.98;34.03;;;0.20;99.90;;;;;;5094117;28;20042;-44
2022/03/25 01:49:25;;;;;;;130.30;30.42;;;;;;;;;;5095732;28;20138;-49
2022/03/25 01:51:55;;;;;;;126.10;29.02;;;0.20;99.90;;;;;;5094401;28;20040;-45
2022/03/25 01:54:24;;;;;;;259.02;31.67;;;0.90;99.90;;;;;;5094036;28;20043;-43
2022/03/25 01:56:56;;;;;;;332.58;35.13;;;0.10;99.90;;;;;;5093144;28;20494;-43
2022/03/25 01:59:23;;;;;;;369.85;36.13;;;0.20;99.90;;;;;;5094380;28;20054;-44
2022/03/25 02:01:50;;;;;;;328.55;36.45;;;0.00;99.90;;;;;;5093716;28;20445;-45
2022/03/25 02:04:17;;;;;;;71.22;28.60;;;;;;;;;;5093853;28;20036;-47
2022/03/25 02:06:43;;;;;;;70.15;30.98;;;;;;;;;;5093701;28;20054;-45
2022/03/25 02:09:10;;;;;;;103.95;28.38;;;;;;;;;;5093964;28;20167;-44
2022/03/25 02:11:40;;;;;;;105.63;30.95;;;-0.10;99.90;;;;;;5094483;28;20043;-43
2022/03/25 02:14:06;;;;;;;46.25;27.38;;;;;;;;;;5094027;28;20043;-45
2022/03/25 02:16:37;;;;;;;155.68;29.52;;;-0.20;99.90;;;;;;5093111;28;20043;-47
2022/03/25 02:19:04;;;;;;;117.82;28.75;;;;;;;;;;5093205;28;20108;-44
2022/03/25 02:21:33;;;;;;;46.83;29.63;;;-0.10;99.90;;;;;;5093850;28;20461;-45
2022/03/25 02:24:00;;;;;;;46.00;28.95;;;;;;;;;;5093397;28;20039;-47
2022/03/25 02:26:29;;;;;;;103.10;28.60;;;-0.20;99.90;;;;;;5094958;28;21139;-45
2022/03/25 02:28:56;;;;;;;277.95;34.85;;;-0.20;99.90;;;;;;5075277;28;20058;-45
2022/03/25 02:31:22;;;;;;;205.50;30.65;;;;;;;;;;5094387;28;20039;-45
2022/03/25 02:33:49;;;;;;;133.93;30.40;;;;;;;;;;5074917;28;20089;-44
2022/03/25 02:36:15;;;;;;;163.85;30.40;;;;;;;;;;5094279;28;20039;-45
2022/03/25 02:38:41;;;;;;;147.80;29.00;;;;;;;;;;5094637;28;20043;-43
2022/03/25 02:41:07;;;;;;;98.88;27.67;;;-0.30;99.90;;;;;;5093520;28;20112;-45
2022/03/25 02:43:33;;;;;;;239.52;32.00;;;;;;;;;;5093820;28;20032;-44
2022/03/25 02:45:59;;;;;;;134.43;28.45;;;;;;;;;;5095192;28;20105;-46
2022/03/25 02:48:25;;;;;;;122.47;29.58;;;;;;;;;;5094145;28;20050;-49
2022/03/25 02:50:54;;;;;;;153.00;32.15;;;-0.50;99.90;;;;;;5095021;28;20569;-45
2022/03/25 02:53:20;;;;;;;101.18;29.10;;;;;;;;;;5094535;28;20039;-44
2022/03/25 02:55:46;;;;;;;44.88;27.15;;;;;;;;;;5094893;28;20093;-46
2022/03/25 02:58:13;;;;;;;75.45;26.35;;;;;;;;;;5094729;28;20136;-44
2022/03/25 03:00:39;;;;;;;93.82;27.50;;;-0.70;99.90;;;;;;5093666;28;20054;-45
2022/03/25 03:03:05;;;;;;;85.40;28.42;;;;;;;;;;5094099;28;20044;-44
2022/03/25 03:05:33;;;;;;;41.50;27.17;;;;;;;;;;5095435;28;20040;-46
2022/03/25 03:07:59;;;;;;;32.15;25.98;;;;;;;;;;5075264;28;20059;-46
2022/03/25 03:10:25;;;;;;;31.33;26.38;;;;;;;;;;5093544;28;20548;-47
2022/03/25 03:12:53;;;;;;;30.35;25.92;;;-0.70;99.90;;;;;;5093403;28;20633;-45
2022/03/25 03:15:20;;;;;;;36.05;27.52;;;-0.70;99.90;;;;;;5093525;28;20044;-45
2022/03/25 03:17:48;;;;;;;28.55;25.02;;;-0.70;99.90;;;;;;5092756;28;20699;-46
2022/03/25 03:20:14;;;;;;;32.03;27.05;;;;;;;;;;5092585;28;20568;-46
2022/03/25 03:22:41;;;;;;;31.17;25.25;;;;;;;;;;5092820;28;20122;-45
2022/03/25 03:25:07;;;;;;;27.63;24.27;;;;;;;;;;5091647;28;20466;-45
2022/03/25 03:27:33;;;;;;;28.98;24.13;;;;;;;;;;5093180;28;20557;-46
2022/03/25 03:30:01;;;;;;;31.27;26.00;;;-0.70;99.90;;;;;;5092478;28;20052;-47
2022/03/25 03:32:27;;;;;;;28.42;24.83;;;;;;;;;;5092573;28;20066;-46
2022/03/25 03:34:54;;;;;;;30.17;24.60;;;-0.70;99.90;;;;;;5093739;28;20039;-47
2022/03/25 03:37:22;;;;;;;29.90;24.95;;;-0.60;99.90;;;;;;5092329;28;20191;-45
2022/03/25 03:39:49;;;;;;;29.88;24.55;;;-0.60;99.90;;;;;;5093387;28;21264;-44
2022/03/25 03:42:15;;;;;;;27.98;23.70;;;;;;;;;;5092419;28;20288;-46
2022/03/25 03:44:43;;;;;;;30.25;24.05;;;-0.60;99.90;;;;;;5093502;28;20082;-44
2022/03/25 03:47:10;;;;;;;28.73;24.05;;;;;;;;;;5091817;28;20035;-45
2022/03/25 03:49:37;;;;;;;28.60;23.48;;;;;;;;;;5092657;28;20044;-44
2022/03/25 03:52:04;;;;;;;30.42;25.15;;;-0.60;99.90;;;;;;5091637;28;20096;-47
2022/03/25 03:54:31;;;;;;;29.23;24.90;;;;;;;;;;5093052;28;20042;-42
2022/03/25 03:56:57;;;;;;;26.70;22.17;;;;;;;;;;5091822;28;20660;-43
2022/03/25 03:59:23;;;;;;;27.40;23.48;;;;;;;;;;5090054;28;20071;-46
2022/03/25 04:01:50;;;;;;;31.00;25.30;;;-0.50;99.90;;;;;;5092069;28;20054;-46
2022/03/25 04:04:17;;;;;;;25.90;22.00;;;;;;;;;;5090374;28;20353;-44
2022/03/25 04:06:44;;;;;;;27.15;23.05;;;;;;;;;;5091983;28;20055;-47
2022/03/25 04:09:10;;;;;;;29.52;23.83;;;;;;;;;;5091617;28;20054;-42
2022/03/25 04:11:36;;;;;;;25.48;21.40;;;;;;;;;;5092020;28;20618;-44
2022/03/25 04:14:02;;;;;;;28.08;21.70;;;;;;;;;;5094972;28;20445;-45
2022/03/25 04:16:32;;;;;;;27.27;23.02;;;-0.70;99.90;;;;;;5092405;28;20046;-46
2022/03/25 04:18:58;;;;;;;26.90;21.50;;;;;;;;;;5074669;28;20035;-46
2022/03/25 04:21:24;;;;;;;25.95;21.63;;;;;;;;;;5091939;28;20049;-43
2022/03/25 04:23:51;;;;;;;26.95;20.83;;;;;;;;;;5093213;28;20488;-44
2022/03/25 04:26:17;;;;;;;25.23;20.63;;;;;;;;;;5093376;28;20256;-41
2022/03/25 04:28:43;;;;;;;22.80;19.80;;;;;;;;;;5092944;28;20073;-46
2022/03/25 04:31:09;;;;;;;26.63;22.05;;;;;;;;;;5092144;28;20043;-41
2022/03/25 04:33:36;;;;;;;24.42;20.02;;;;;;;;;;5092565;28;20047;-42
2022/03/25 04:36:02;;;;;;;23.35;20.30;;;;;;;;;;5091717;28;20039;-42
2022/03/25 04:38:30;;;;;;;27.58;21.92;;;-0.80;99.90;;;;;;5091865;28;20509;-44
2022/03/25 04:40:56;;;;;;;25.73;21.05;;;;;;;;;;5091040;28;20058;-42
2022/03/25 04:43:23;;;;;;;34.03;23.90;;;;;;;;;;5091767;28;20522;-43
2022/03/25 04:45:50;;;;;;;70.28;27.65;;;-0.70;99.90;;;;;;5091053;28;20065;-44
2022/03/25 04:48:17;;;;;;;32.33;23.58;;;;;;;;;;5090145;28;20031;-42
2022/03/25 04:50:44;;;;;;;43.00;27.80;;;;;;;;;;5091947;28;20039;-42
2022/03/25 04:53:10;;;;;;;41.55;27.33;;;-0.70;99.90;;;;;;5091982;28;20043;-42
2022/03/25 04:55:39;;;;;;;80.10;29.88;;;-0.80;99.90;;;;;;5090834;28;20990;-41
2022/03/25 04:58:05;;;;;;;51.92;28.60;;;;;;;;;;5070926;28;20036;-43
2022/03/25 05:00:31;;;;;;;64.28;26.75;;;;;;;;;;5091187;28;20117;-44
2022/03/25 05:02:59;;;;;;;57.53;27.50;;;-0.80;99.90;;;;;;5090791;28;20821;-43
2022/03/25 05:05:25;;;;;;;91.95;28.27;;;;;;;;;;5092189;28;20048;-41
2022/03/25 05:07:51;;;;;;;108.05;28.20;;;;;;;;;;5091162;28;20044;-44
2022/03/25 05:10:19;;;;;;;71.60;26.63;;;-0.80;99.90;;;;;;5107441;27;20631;-42
2022/03/25 05:12:46;;;;;;;46.35;27.38;;;;;;;;;;5095312;28;20047;-44
2022/03/25 05:15:12;;;;;;;38.35;27.02;;;;;;;;;;5096030;28;20435;-43
2022/03/25 05:17:48;;;;;;;124.70;27.88;;;-0.30;99.90;;;;;;5094447;28;20847;-44
2022/03/25 05:20:16;;;;;;;105.60;27.73;;;-1.10;99.90;;;;;;5096548;28;20130;-43
2022/03/25 05:22:42;;;;;;;65.32;25.98;;;;;;;;;;5078821;28;20054;-44
2022/03/25 05:25:10;;;;;;;80.38;27.60;;;-0.90;99.90;;;;;;5095664;28;20046;-45
2022/03/25 05:27:53;;;;;;;83.85;26.52;;;-1.10;99.90;;;;;;5096226;28;20038;-43
2022/03/25 05:30:22;;;;;;;94.03;26.92;;;-1.00;99.90;;;;;;5095630;28;20050;-43
2022/03/25 05:32:48;;;;;;;140.45;28.90;;;;;;;;;;5095693;28;20044;-44
2022/03/25 05:35:14;;;;;;;40.25;27.95;;;;;;;;;;5095728;28;20044;-43
2022/03/25 05:37:40;;;;;;;35.65;26.83;;;;;;;;;;5096364;28;20122;-43
2022/03/25 05:40:07;;;;;;;39.83;27.95;;;;;;;;;;5095324;28;20054;-44
2022/03/25 05:42:34;;;;;;;39.60;27.25;;;;;;;;;;5093658;28;20039;-48
2022/03/25 05:45:00;;;;;;;36.90;25.52;;;;;;;;;;5095393;28;20436;-44
2022/03/25 05:47:26;;;;;;;35.90;26.25;;;;;;;;;;5094225;28;20830;-43
2022/03/25 05:49:52;;;;;;;37.28;26.40;;;;;;;;;;5094493;28;20045;-43
2022/03/25 05:52:18;;;;;;;35.42;26.45;;;;;;;;;;5093303;28;20085;-45
2022/03/25 05:54:45;;;;;;;32.10;23.35;;;;;;;;;;5093736;28;20043;-44
2022/03/25 05:57:13;;;;;;;30.70;23.40;;;-0.20;99.90;;;;;;5076032;28;20047;-44
2022/03/25 05:59:39;;;;;;;26.13;21.95;;;;;;;;;;5094184;28;20547;-46
2022/03/25 06:02:05;;;;;;;24.33;21.42;;;;;;;;;;5094143;28;20419;-44
2022/03/25 06:04:31;;;;;;;28.20;23.00;;;;;;;;;;5095496;28;20495;-46
2022/03/25 06:06:57;;;;;;;33.80;24.42;;;;;;;;;;5093574;28;20055;-46
2022/03/25 06:09:23;;;;;;;24.60;21.30;;;;;;;;;;5093544;28;20070;-43
2022/03/25 06:11:51;;;;;;;24.45;20.58;;;;;;;;;;5093505;28;20039;-43
2022/03/25 06:14:17;;;;;;;26.80;21.92;;;;;;;;;;5094642;28;20675;-48
2022/03/25 06:16:44;;;;;;;33.90;23.95;;;;;;;;;;5093249;28;20401;-44
2022/03/25 06:19:13;;;;;;;27.98;22.92;;;1.20;99.90;;;;;;5092794;28;20571;-49
2022/03/25 06:21:39;;;;;;;31.05;23.15;;;;;;;;;;5092830;28;20040;-49
2022/03/25 06:24:05;;;;;;;27.05;20.65;;;;;;;;;;5094734;28;20412;-50
2022/03/25 06:26:31;;;;;;;30.83;21.70;;;;;;;;;;5093379;28;20036;-48
2022/03/25 06:28:59;;;;;;;33.33;23.83;;;3.20;99.90;;;;;;5092260;28;20080;-46
2022/03/25 06:31:25;;;;;;;36.13;24.98;;;;;;;;;;5092175;28;20096;-47
2022/03/25 06:33:51;;;;;;;34.30;26.05;;;3.90;99.90;;;;;;5094660;28;20035;-48
2022/03/25 06:36:17;;;;;;;32.20;25.17;;;4.60;99.90;;;;;;5094709;28;20766;-46
2022/03/25 06:38:43;;;;;;;30.63;24.40;;;5.30;99.90;;;;;;5094569;28;20035;-45
2022/03/25 06:41:09;;;;;;;30.50;24.58;;;5.60;99.90;;;;;;5093730;28;20496;-48
2022/03/25 06:43:38;;;;;;;29.17;23.20;;;6.20;99.90;;;;;;5094162;28;20036;-43
2022/03/25 06:46:04;;;;;;;34.53;24.88;;;6.70;99.90;;;;;;5095235;28;20031;-45
2022/03/25 06:48:34;;;;;;;35.30;24.45;;;7.30;99.90;;;;;;5094734;28;20036;-45
2022/03/25 06:51:00;;;;;;;33.35;23.90;;;7.70;99.90;;;;;;5094361;28;20495;-48
2022/03/25 06:53:29;;;;;;;32.42;23.73;;;8.40;99.90;;;;;;5076221;28;20043;-47
2022/03/25 06:55:55;;;;;;;30.33;23.67;;;9.20;99.90;;;;;;5094010;28;20040;-49
2022/03/25 06:58:21;;;;;;;31.75;24.48;;;9.80;99.90;;;;;;5095097;28;20050;-47
2022/03/25 07:00:47;;;;;;;27.70;22.60;;;10.10;99.90;;;;;;5095683;28;20488;-49
2022/03/25 07:03:14;;;;;;;28.02;23.30;;;10.60;99.90;;;;;;5093736;28;20454;-53
2022/03/25 07:05:41;;;;;;;28.27;24.17;;;10.80;99.90;;;;;;5093529;28;20093;-48
2022/03/25 07:08:09;;;;;;;28.40;23.77;;;10.80;99.90;;;;;;5092531;28;20560;-50
2022/03/25 07:10:35;;;;;;;32.10;24.42;;;10.70;99.90;;;;;;5058628;28;20084;-48
2022/03/25 07:13:01;;;;;;;29.65;24.58;;;10.70;99.90;;;;;;5091803;28;20063;-47
2022/03/25 07:15:27;;;;;;;31.25;23.25;;;10.60;99.90;;;;;;5094497;28;20073;-48
2022/03/25 07:17:53;;;;;;;27.95;23.23;;;10.40;99.90;;;;;;5093745;28;20733;-49
2022/03/25 07:20:22;;;;;;;26.83;22.90;;;10.50;99.90;;;;;;5092803;28;20051;-50
2022/03/25 07:22:50;;;;;;;27.08;23.13;;;10.70;99.90;;;;;;5092219;28;20038;-50
2022/03/25 07:25:17;;;;;;;29.10;24.77;;;12.80;99.90;;;;;;5091236;28;20115;-51
2022/03/25 07:27:44;;;;;;;31.13;24.08;;;13.80;99.90;;;;;;5091443;28;20755;-47
2022/03/25 07:30:13;;;;;;;30.95;25.45;;;14.20;99.90;;;;;;5092847;28;20040;-47
2022/03/25 07:32:39;;;;;;;32.40;25.20;;;12.90;99.90;;;;;;5074381;28;20048;-47
2022/03/25 07:35:05;;;;;;;31.23;25.13;;;13.10;99.90;;;;;;5072668;28;20381;-46
2022/03/25 07:37:31;;;;;;;30.58;25.55;;;13.00;99.90;;;;;;5091825;28;20110;-50
2022/03/25 07:39:57;;;;;;;31.58;25.75;;;13.10;99.90;;;;;;5092710;28;20128;-47
2022/03/25 07:42:22;;;;;;;30.80;24.20;;;13.40;99.90;;;;;;5091033;28;20035;-48
2022/03/25 07:44:49;;;;;;;29.30;23.20;;;13.10;99.90;;;;;;5092248;28;20035;-47
2022/03/25 07:47:15;;;;;;;31.50;24.92;;;15.40;99.90;;;;;;5091595;28;20069;-47
2022/03/25 07:49:42;;;;;;;30.38;24.20;;;13.20;99.90;;;;;;5091780;28;20042;-50
2022/03/25 07:52:14;;;;;;;30.02;24.05;;;13.70;99.90;;;;;;5091490;28;20269;-46
2022/03/25 07:54:39;;;;;;;;;;;12.90;99.90;;;;;;5093235;28;20071;-48
2022/03/25 07:57:05;;;;;;;31.13;24.02;;;13.40;99.90;;;;;;5092048;28;19994;-46
2022/03/25 07:59:31;;;;;;;29.83;23.55;;;14.10;99.90;;;;;;5092140;28;20043;-50
2022/03/25 08:01:57;;;;;;;29.60;23.25;;;14.20;99.90;;;;;;5093287;28;20087;-46
2022/03/25 08:04:27;;;;;;;30.20;23.90;;;14.90;99.90;;;;;;5073358;28;20046;-46
2022/03/25 08:06:54;;;;;;;28.00;23.25;;;15.60;99.90;;;;;;5091392;28;20047;-46
2022/03/25 08:09:20;;;;;;;30.33;23.50;;;16.10;99.90;;;;;;5073022;28;20086;-48
2022/03/25 08:11:46;;;;;;;26.08;21.13;;;16.40;99.90;;;;;;5092849;28;20181;-47
2022/03/25 08:14:13;;;;;;;27.90;20.88;;;18.80;99.90;;;;;;5091345;28;20123;-49
2022/03/25 08:16:40;;;;;;;373.30;169.93;;;16.90;99.90;;;;;;5092082;28;20039;-50
2022/03/25 08:19:06;;;;;;;306.65;276.92;;;17.50;99.90;;;;;;5092333;28;20503;-46
2022/03/25 08:21:32;;;;;;;26.38;20.77;;;17.20;99.90;;;;;;5090906;28;20153;-46
2022/03/25 08:29:27;;;;;;;27.33;20.50;;;15.90;99.90;;;;;;5090987;28;20051;-46
2022/03/25 08:31:55;;;;;;;29.80;21.48;;;14.40;99.90;;;;;;5091117;28;20527;-47
2022/03/25 08:34:21;;;;;;;28.33;20.45;;;13.70;99.90;;;;;;5090441;28;20493;-48
2022/03/25 08:36:48;;;;;;;29.33;20.30;;;13.40;99.90;;;;;;5090335;28;21188;-47
2022/03/25 08:39:15;;;;;;;26.73;20.08;;;14.50;99.90;;;;;;5091360;28;20123;-47
2022/03/25 08:41:41;;;;;;;27.70;20.27;;;13.30;99.90;;;;;;5092078;28;20036;-48
2022/03/25 08:44:07;;;;;;;30.20;21.40;;;13.20;99.90;;;;;;5069981;28;20052;-47
2022/03/25 08:46:34;;;;;;;35.95;20.45;;;13.80;99.90;;;;;;5094874;28;20109;-47
2022/03/25 08:49:01;;;;;;;31.65;21.33;;;14.60;99.90;;;;;;5096264;28;20096;-51
2022/03/25 08:51:27;;;;;;;29.33;20.60;;;14.20;99.90;;;;;;5095598;28;20039;-48
2022/03/25 08:53:56;;;;;;;41.40;31.33;;;14.20;99.90;;;;;;5094634;28;20430;-46
2022/03/25 08:56:24;;;;;;;35.95;24.23;;;13.70;99.90;;;;;;5094124;28;20024;-46
2022/03/25 08:58:54;;;;;;;27.67;20.63;;;13.90;99.90;;;;;;5094648;28;20047;-47
2022/03/25 09:01:20;;;;;;;29.27;19.70;;;15.90;99.90;;;;;;5095179;28;20272;-48
2022/03/25 09:03:46;;;;;;;29.80;19.42;;;14.20;99.90;;;;;;5095049;28;20535;-48
2022/03/25 09:06:12;;;;;;;33.13;21.50;;;14.90;99.90;;;;;;5094848;28;20047;-48
2022/03/25 09:08:38;;;;;;;29.38;18.17;;;15.20;99.90;;;;;;5094889;28;20169;-46
2022/03/25 09:11:04;;;;;;;28.23;18.70;;;14.30;99.90;;;;;;5095888;28;20047;-51
2022/03/25 09:13:30;;;;;;;31.42;19.67;;;16.40;99.90;;;;;;5094413;28;20074;-47
2022/03/25 09:15:56;;;;;;;27.40;19.15;;;14.30;99.90;;;;;;5095797;28;20373;-46
2022/03/25 09:18:22;;;;;;;28.48;18.77;;;14.40;99.90;;;;;;5095160;28;20099;-45
2022/03/25 09:20:48;;;;;;;29.70;18.75;;;14.40;99.90;;;;;;5075649;28;20042;-47
2022/03/25 09:23:14;;;;;;;30.25;20.05;;;14.80;99.90;;;;;;5094416;28;20434;-49
2022/03/25 09:25:40;;;;;;;26.45;18.52;;;15.40;99.90;;;;;;5093775;28;20054;-46
2022/03/25 09:28:08;;;;;;;25.20;17.13;;;17.90;99.90;;;;;;5094577;28;20062;-47
2022/03/25 09:30:34;;;;;;;29.33;18.65;;;16.10;99.90;;;;;;5094954;28;20070;-50
2022/03/25 09:33:00;;;;;;;24.95;16.92;;;16.30;99.90;;;;;;5093674;28;20118;-48
2022/03/25 09:35:26;;;;;;;21.85;16.40;;;18.40;99.90;;;;;;5095251;28;20042;-49
2022/03/25 09:37:52;;;;;;;22.63;16.38;;;16.60;99.90;;;;;;5095877;28;20118;-47
2022/03/25 09:40:26;;;;;;;23.00;15.48;;;17.90;99.90;;;;;;5094953;28;20142;-47
2022/03/25 09:42:55;;;;;;;23.98;15.88;;;17.40;99.90;;;;;;5096250;28;20046;-46
2022/03/25 09:45:22;;;;;;;24.90;16.42;;;16.90;99.60;;;;;;5096550;28;20043;-46
2022/03/25 09:47:50;;;;;;;19.02;13.20;;;16.90;99.80;;;;;;5095562;28;20047;-46
2022/03/25 09:50:23;;;;;;;25.88;16.33;;;17.10;97.70;;;;;;5095246;28;20481;-49
2022/03/25 09:52:50;;;;;;;24.02;15.60;;;17.10;98.90;;;;;;5095728;28;20039;-47
2022/03/25 09:55:18;;;;;;;24.30;15.77;;;16.60;99.20;;;;;;5077368;28;20047;-46
2022/03/25 09:57:44;;;;;;;21.52;14.30;;;16.00;99.60;;;;;;5095442;28;20062;-46
2022/03/25 10:00:16;;;;;;;24.30;15.18;;;15.80;99.90;;;;;;5094693;28;20075;-45
2022/03/25 10:02:42;;;;;;;22.42;14.85;;;15.60;99.80;;;;;;5095597;28;20075;-46
2022/03/25 10:05:21;;;;;;;24.77;14.18;;;16.50;99.90;;;;;;5093448;28;20036;-47
2022/03/25 10:07:49;;;;;;;22.70;15.35;;;15.40;99.70;;;;;;5093939;28;20098;-50
2022/03/25 10:10:17;;;;;;;24.23;15.40;;;15.20;99.90;;;;;;5093383;28;20621;-47
2022/03/25 10:12:49;;;;;;;22.83;16.20;;;15.70;99.00;;;;;;5094423;28;20043;-45
2022/03/25 10:15:25;;;;;;;27.92;15.80;;;15.70;99.90;;;;;;5093095;28;20047;-46
2022/03/25 10:17:57;;;;;;;26.63;17.73;;;15.20;99.90;;;;;;5093833;28;20034;-45
2022/03/25 10:20:31;;;;;;;25.30;16.33;;;15.10;99.60;;;;;;5076356;28;20055;-46
2022/03/25 10:23:13;;;;;;;27.80;16.42;;;15.70;99.90;;;;;;5093875;28;20321;-47
2022/03/25 10:25:53;;;;;;;25.65;16.48;;;14.90;99.90;;;;;;5092740;28;20039;-48
2022/03/25 10:28:29;;;;;;;26.75;16.80;;;16.10;99.90;;;;;;5092798;28;20549;-47
2022/03/25 10:31:00;;;;;;;23.90;15.65;;;15.00;99.90;;;;;;5093127;28;20050;-48
2022/03/25 10:33:32;;;;;;;27.92;17.58;;;14.40;99.90;;;;;;5092579;28;20050;-48
2022/03/25 10:36:07;;;;;;;;;;;15.40;99.90;;;;;;5093993;28;20516;-48
2022/03/25 10:38:57;;;;;;;30.35;18.30;;;15.50;99.60;;;;;;5092892;28;20018;-48
2022/03/25 10:41:25;;;;;;;33.55;19.00;;;15.50;99.10;;;;;;5091140;28;20124;-46
2022/03/25 10:43:53;;;;;;;28.13;18.73;;;15.70;99.90;;;;;;5093864;28;20502;-50
2022/03/25 10:46:31;;;;;;;26.13;17.02;;;15.70;99.90;;;;;;5093500;28;20123;-48
2022/03/25 10:48:59;;;;;;;30.88;18.50;;;15.80;99.90;;;;;;5094120;28;20040;-46
2022/03/25 10:51:25;;;;;;;28.80;18.08;;;16.10;99.90;;;;;;5094502;28;20059;-49
2022/03/25 10:54:03;;;;;;;39.45;20.38;;;16.00;99.90;;;;;;5094452;28;20035;-49
2022/03/25 10:56:41;;;;;;;29.70;19.25;;;16.10;99.90;;;;;;5094806;28;20047;-48
2022/03/25 10:59:23;;;;;;;35.50;19.63;;;16.20;99.90;;;;;;5093578;28;20043;-47
2022/03/25 11:01:51;;;;;;;28.77;18.85;;;16.30;99.90;;;;;;5093481;28;20043;-50
2022/03/25 11:04:17;;;;;;;27.80;17.83;;;16.10;98.60;;;;;;5093620;28;20063;-48
2022/03/25 11:06:45;;;;;;;29.38;19.40;;;16.00;99.40;;;;;;5092786;28;20054;-47
2022/03/25 11:09:13;;;;;;;29.50;18.40;;;15.70;99.50;;;;;;5091343;28;20105;-45
2022/03/25 11:11:42;;;;;;;26.17;18.15;;;16.20;99.50;;;;;;5092470;28;20503;-45
2022/03/25 11:14:08;;;;;;;34.70;19.77;;;17.70;99.90;;;;;;5092638;28;20058;-49
2022/03/25 11:16:38;;;;;;;32.42;18.45;;;16.00;99.60;;;;;;5093955;28;20126;-46
2022/03/25 11:19:04;;;;;;;28.38;18.50;;;16.70;99.50;;;;;;5092425;28;20407;-50
2022/03/25 11:21:33;;;;;;;30.67;18.80;;;16.10;99.20;;;;;;5093415;28;20146;-46
2022/03/25 11:24:03;;;;;;;32.53;20.88;;;16.20;99.40;;;;;;5091585;28;20404;-49
2022/03/25 11:26:30;;;;;;;33.40;20.50;;;16.10;98.70;;;;;;5090024;28;20040;-47
2022/03/25 11:28:59;;;;;;;30.60;21.23;;;16.20;98.10;;;;;;5092312;28;20109;-50
2022/03/25 11:31:25;;;;;;;34.58;19.75;;;16.60;99.10;;;;;;5091998;28;20935;-46
2022/03/25 11:34:12;;;;;;;30.90;21.52;;;18.30;99.90;;;;;;5092133;28;20040;-50
2022/03/25 11:36:43;;;;;;;40.45;20.98;;;16.30;98.60;;;;;;5090478;28;20394;-46
2022/03/25 11:39:27;;;;;;;32.97;21.13;;;16.20;98.00;;;;;;5091303;28;20134;-45
2022/03/25 11:42:01;;;;;;;32.08;20.23;;;16.20;99.30;;;;;;5091583;28;20050;-51
2022/03/25 11:44:29;;;;;;;26.85;18.60;;;18.40;99.90;;;;;;5090794;28;20563;-45
2022/03/25 11:47:03;;;;;;;37.58;21.80;;;16.50;99.80;;;;;;5091585;28;20044;-45
2022/03/25 11:49:36;;;;;;;33.78;19.45;;;16.40;96.70;;;;;;5089533;28;20395;-45
2022/03/25 11:52:16;;;;;;;32.72;18.85;;;16.50;98.70;;;;;;5090341;28;20031;-46
2022/03/25 11:54:43;;;;;;;25.55;17.27;;;16.40;98.70;;;;;;5091877;28;20457;-45
2022/03/25 11:57:26;;;;;;;28.55;17.23;;;18.30;99.30;;;;;;5091848;28;20487;-47
2022/03/25 12:00:00;;;;;;;29.33;16.80;;;16.50;98.10;;;;;;5090441;28;20047;-45
2022/03/25 12:02:29;;;;;;;26.65;15.50;;;18.50;98.80;;;;;;5090291;28;20044;-44
2022/03/25 12:04:58;;;;;;;23.10;14.60;;;16.30;97.50;;;;;;5089682;28;20035;-46
2022/03/25 12:07:25;;;;;;;26.25;15.45;;;16.40;97.30;;;;;;5090631;28;20132;-47
2022/03/25 12:09:50;;;;;;;26.30;13.18;;;14.30;97.00;;;;;;5092104;28;20112;-44
2022/03/25 12:12:16;;;;;;;27.35;14.52;;;18.80;96.40;;;;;;5091834;28;20696;-47
2022/03/25 12:15:04;;;;;;;26.98;14.35;;;16.50;96.10;;;;;;5092021;28;20035;-44
2022/03/25 12:17:30;;;;;;;22.02;13.07;;;16.70;95.80;;;;;;5091783;28;20468;-46
2022/03/25 12:19:56;;;;;;;24.42;14.38;;;16.50;95.10;;;;;;5090852;28;20136;-45
2022/03/25 12:22:25;;;;;;;24.90;13.77;;;16.50;96.00;;;;;;5092563;28;20040;-50
2022/03/25 12:24:57;;;;;;;26.35;13.85;;;17.70;96.70;;;;;;5092318;28;20039;-46
2022/03/25 12:27:24;;;;;;;26.67;14.07;;;16.40;96.40;;;;;;5092063;28;20028;-50
2022/03/25 12:29:52;;;;;;;21.75;12.95;;;16.60;97.00;;;;;;5091403;28;20645;-45
2022/03/25 12:32:21;;;;;;;22.70;13.13;;;16.70;96.40;;;;;;5092383;28;20075;-44
2022/03/25 12:35:16;;;;;;;30.55;15.55;;;18.10;95.70;;;;;;5090177;28;20044;-44
2022/03/25 12:38:01;;;;;;;24.77;16.83;;;17.10;96.40;;;;;;5088472;28;20135;-44
2022/03/25 12:40:33;;;;;;;27.38;18.08;;;16.30;95.90;;;;;;5088634;28;20130;-45
2022/03/25 12:43:05;;;;;;;29.27;18.90;;;17.30;96.50;;;;;;5089663;28;20127;-46
2022/03/25 12:45:30;;;;;;;29.02;19.05;;;16.30;95.90;;;;;;5089424;28;20131;-45
2022/03/25 12:47:57;;;;;;;26.50;16.90;;;16.20;96.00;;;;;;5091535;28;20047;-45
2022/03/25 12:50:23;;;;;;;30.23;18.83;;;16.10;96.30;;;;;;5090636;28;20066;-44
2022/03/25 12:52:59;;;;;;;25.80;17.33;;;16.00;96.10;;;;;;5089594;28;20195;-44
2022/03/25 12:55:29;;;;;;;26.92;18.23;;;15.90;96.00;;;;;;5090558;28;20040;-45
2022/03/25 12:58:11;;;;;;;31.38;17.60;;;16.00;96.10;;;;;;5091800;28;20130;-45
2022/03/25 13:00:41;;;;;;;28.25;17.52;;;15.90;96.20;;;;;;5089954;28;20039;-45
2022/03/25 13:03:08;;;;;;;26.42;17.50;;;16.10;96.70;;;;;;5090062;28;20059;-46
2022/03/25 13:05:35;;;;;;;28.45;17.40;;;16.20;96.70;;;;;;5090019;28;20040;-45
2022/03/25 13:08:03;;;;;;;27.08;17.13;;;16.20;95.70;;;;;;5090358;28;20061;-46
2022/03/25 13:10:29;;;;;;;27.67;15.63;;;16.10;95.30;;;;;;5089619;28;20050;-46